sensor_id;sensor_type;location;lat;lon;timestamp;P1;durP1;ratioP1;P2;durP2;ratioP2
5995;SDS011;3026;53.612;7.278;2023-04-24T00:01:56;4.37;;;3.97;;
5995;SDS011;3026;53.612;7.278;2023-04-24T00:04:23;4.90;;;4.43;;
5995;SDS011;3026;53.612;7.278;2023-04-24T00:06:51;4.83;;;4.33;;
5995;SDS011;3026;53.612;7.278;2023-04-24T00:09:20;4.80;;;4.40;;
5995;SDS011;3026;53.612;7.278;2023-04-24T00:11:47;5.13;;;4.63;;
5995;SDS011;3026;53.612;7.278;2023-04-24T00:14:14;5.50;;;4.37;;
5995;SDS011;3026;53.612;7.278;2023-04-24T00:16:41;6.13;;;4.27;;
5995;SDS011;3026;53.612;7.278;2023-04-24T00:19:08;4.80;;;4.40;;
5995;SDS011;3026;53.612;7.278;2023-04-24T00:21:36;4.63;;;4.13;;
5995;SDS011;3026;53.612;7.278;2023-04-24T00:24:03;4.83;;;4.23;;
5995;SDS011;3026;53.612;7.278;2023-04-24T00:26:31;4.80;;;4.13;;
5995;SDS011;3026;53.612;7.278;2023-04-24T00:28:58;4.43;;;4.03;;
5995;SDS011;3026;53.612;7.278;2023-04-24T00:31:25;4.97;;;4.57;;
5995;SDS011;3026;53.612;7.278;2023-04-24T00:33:52;6.77;;;4.20;;
5995;SDS011;3026;53.612;7.278;2023-04-24T00:36:18;6.23;;;4.47;;
5995;SDS011;3026;53.612;7.278;2023-04-24T00:38:45;5.43;;;3.83;;
5995;SDS011;3026;53.612;7.278;2023-04-24T00:41:12;5.63;;;3.90;;
5995;SDS011;3026;53.612;7.278;2023-04-24T00:43:41;4.70;;;4.30;;
5995;SDS011;3026;53.612;7.278;2023-04-24T00:46:07;6.00;;;4.20;;
5995;SDS011;3026;53.612;7.278;2023-04-24T00:48:34;4.73;;;4.33;;
5995;SDS011;3026;53.612;7.278;2023-04-24T00:51:01;5.83;;;4.43;;
5995;SDS011;3026;53.612;7.278;2023-04-24T00:53:28;5.07;;;4.57;;
5995;SDS011;3026;53.612;7.278;2023-04-24T00:55:55;5.63;;;4.83;;
5995;SDS011;3026;53.612;7.278;2023-04-24T00:58:22;4.60;;;4.13;;
5995;SDS011;3026;53.612;7.278;2023-04-24T01:00:51;4.87;;;3.77;;
5995;SDS011;3026;53.612;7.278;2023-04-24T01:03:19;4.90;;;4.07;;
5995;SDS011;3026;53.612;7.278;2023-04-24T01:05:47;5.53;;;4.43;;
5995;SDS011;3026;53.612;7.278;2023-04-24T01:08:15;3.70;;;3.40;;
5995;SDS011;3026;53.612;7.278;2023-04-24T01:10:43;3.87;;;3.40;;
5995;SDS011;3026;53.612;7.278;2023-04-24T01:13:11;4.87;;;3.30;;
5995;SDS011;3026;53.612;7.278;2023-04-24T01:15:37;4.97;;;3.10;;
5995;SDS011;3026;53.612;7.278;2023-04-24T01:18:06;3.10;;;2.80;;
5995;SDS011;3026;53.612;7.278;2023-04-24T01:20:33;2.73;;;2.30;;
5995;SDS011;3026;53.612;7.278;2023-04-24T01:23:03;2.13;;;1.93;;
5995;SDS011;3026;53.612;7.278;2023-04-24T01:25:30;1.53;;;1.33;;
5995;SDS011;3026;53.612;7.278;2023-04-24T01:27:57;2.30;;;1.33;;
5995;SDS011;3026;53.612;7.278;2023-04-24T01:30:24;1.20;;;1.10;;
5995;SDS011;3026;53.612;7.278;2023-04-24T01:32:52;1.10;;;1.00;;
5995;SDS011;3026;53.612;7.278;2023-04-24T01:35:19;1.00;;;0.90;;
5995;SDS011;3026;53.612;7.278;2023-04-24T01:37:46;0.77;;;0.77;;
5995;SDS011;3026;53.612;7.278;2023-04-24T01:40:14;0.87;;;0.70;;
5995;SDS011;3026;53.612;7.278;2023-04-24T01:42:41;2.00;;;0.90;;
5995;SDS011;3026;53.612;7.278;2023-04-24T01:45:09;1.27;;;0.87;;
5995;SDS011;3026;53.612;7.278;2023-04-24T01:47:37;1.17;;;0.80;;
5995;SDS011;3026;53.612;7.278;2023-04-24T01:50:05;0.80;;;0.80;;
5995;SDS011;3026;53.612;7.278;2023-04-24T01:52:32;1.60;;;1.00;;
5995;SDS011;3026;53.612;7.278;2023-04-24T01:55:01;0.90;;;0.90;;
5995;SDS011;3026;53.612;7.278;2023-04-24T01:57:30;2.87;;;1.13;;
5995;SDS011;3026;53.612;7.278;2023-04-24T01:59:57;0.77;;;0.77;;
5995;SDS011;3026;53.612;7.278;2023-04-24T02:02:24;0.90;;;0.90;;
5995;SDS011;3026;53.612;7.278;2023-04-24T02:04:52;1.43;;;1.10;;
5995;SDS011;3026;53.612;7.278;2023-04-24T02:07:19;1.27;;;1.10;;
5995;SDS011;3026;53.612;7.278;2023-04-24T02:09:46;1.07;;;1.00;;
5995;SDS011;3026;53.612;7.278;2023-04-24T02:12:13;1.37;;;1.00;;
5995;SDS011;3026;53.612;7.278;2023-04-24T02:14:41;1.20;;;1.20;;
5995;SDS011;3026;53.612;7.278;2023-04-24T02:17:08;1.10;;;1.10;;
5995;SDS011;3026;53.612;7.278;2023-04-24T02:19:38;1.40;;;1.30;;
5995;SDS011;3026;53.612;7.278;2023-04-24T02:22:05;1.40;;;1.30;;
5995;SDS011;3026;53.612;7.278;2023-04-24T02:24:32;2.53;;;1.27;;
5995;SDS011;3026;53.612;7.278;2023-04-24T02:26:58;1.27;;;1.03;;
5995;SDS011;3026;53.612;7.278;2023-04-24T02:29:27;1.30;;;1.20;;
5995;SDS011;3026;53.612;7.278;2023-04-24T02:31:55;1.13;;;1.13;;
5995;SDS011;3026;53.612;7.278;2023-04-24T02:34:21;1.53;;;1.40;;
5995;SDS011;3026;53.612;7.278;2023-04-24T02:36:49;1.87;;;1.73;;
5995;SDS011;3026;53.612;7.278;2023-04-24T02:39:15;1.60;;;1.50;;
5995;SDS011;3026;53.612;7.278;2023-04-24T02:41:43;2.20;;;1.50;;
5995;SDS011;3026;53.612;7.278;2023-04-24T02:44:10;3.43;;;1.60;;
5995;SDS011;3026;53.612;7.278;2023-04-24T02:46:37;2.07;;;1.40;;
5995;SDS011;3026;53.612;7.278;2023-04-24T02:49:07;1.47;;;1.37;;
5995;SDS011;3026;53.612;7.278;2023-04-24T02:51:34;1.70;;;1.60;;
5995;SDS011;3026;53.612;7.278;2023-04-24T02:54:05;1.60;;;1.50;;
5995;SDS011;3026;53.612;7.278;2023-04-24T02:56:32;1.70;;;1.60;;
5995;SDS011;3026;53.612;7.278;2023-04-24T02:58:59;2.60;;;1.70;;
5995;SDS011;3026;53.612;7.278;2023-04-24T03:01:26;1.57;;;1.40;;
5995;SDS011;3026;53.612;7.278;2023-04-24T03:03:52;1.50;;;1.40;;
5995;SDS011;3026;53.612;7.278;2023-04-24T03:06:21;1.80;;;1.70;;
5995;SDS011;3026;53.612;7.278;2023-04-24T03:08:47;2.10;;;2.00;;
5995;SDS011;3026;53.612;7.278;2023-04-24T03:11:14;2.00;;;1.80;;
5995;SDS011;3026;53.612;7.278;2023-04-24T03:13:41;2.67;;;2.00;;
5995;SDS011;3026;53.612;7.278;2023-04-24T03:16:08;2.50;;;2.30;;
5995;SDS011;3026;53.612;7.278;2023-04-24T03:18:35;2.40;;;2.20;;
5995;SDS011;3026;53.612;7.278;2023-04-24T03:21:02;2.47;;;2.27;;
5995;SDS011;3026;53.612;7.278;2023-04-24T03:23:30;3.30;;;2.77;;
5995;SDS011;3026;53.612;7.278;2023-04-24T03:25:57;4.73;;;3.30;;
5995;SDS011;3026;53.612;7.278;2023-04-24T03:28:24;2.77;;;2.50;;
5995;SDS011;3026;53.612;7.278;2023-04-24T03:30:51;4.27;;;3.27;;
5995;SDS011;3026;53.612;7.278;2023-04-24T03:33:18;2.90;;;2.70;;
5995;SDS011;3026;53.612;7.278;2023-04-24T03:35:45;3.30;;;3.00;;
5995;SDS011;3026;53.612;7.278;2023-04-24T03:38:12;2.80;;;2.60;;
5995;SDS011;3026;53.612;7.278;2023-04-24T03:40:40;3.40;;;3.10;;
5995;SDS011;3026;53.612;7.278;2023-04-24T03:43:07;3.30;;;2.97;;
5995;SDS011;3026;53.612;7.278;2023-04-24T03:45:33;3.70;;;2.87;;
5995;SDS011;3026;53.612;7.278;2023-04-24T03:48:00;3.10;;;2.80;;
5995;SDS011;3026;53.612;7.278;2023-04-24T03:50:27;3.83;;;3.43;;
5995;SDS011;3026;53.612;7.278;2023-04-24T03:52:55;3.67;;;3.37;;
5995;SDS011;3026;53.612;7.278;2023-04-24T03:55:21;4.00;;;3.20;;
5995;SDS011;3026;53.612;7.278;2023-04-24T03:57:50;3.83;;;3.53;;
5995;SDS011;3026;53.612;7.278;2023-04-24T04:00:16;3.60;;;3.27;;
5995;SDS011;3026;53.612;7.278;2023-04-24T04:02:43;3.70;;;3.40;;
5995;SDS011;3026;53.612;7.278;2023-04-24T04:05:10;4.07;;;3.77;;
5995;SDS011;3026;53.612;7.278;2023-04-24T04:07:37;4.87;;;3.93;;
5995;SDS011;3026;53.612;7.278;2023-04-24T04:10:04;4.33;;;4.00;;
5995;SDS011;3026;53.612;7.278;2023-04-24T04:12:32;4.30;;;3.90;;
5995;SDS011;3026;53.612;7.278;2023-04-24T04:15:00;3.90;;;3.60;;
5995;SDS011;3026;53.612;7.278;2023-04-24T04:17:27;3.93;;;3.60;;
5995;SDS011;3026;53.612;7.278;2023-04-24T04:19:54;3.70;;;3.40;;
5995;SDS011;3026;53.612;7.278;2023-04-24T04:22:21;4.00;;;3.70;;
5995;SDS011;3026;53.612;7.278;2023-04-24T04:24:48;4.20;;;3.80;;
5995;SDS011;3026;53.612;7.278;2023-04-24T04:27:16;4.53;;;4.20;;
5995;SDS011;3026;53.612;7.278;2023-04-24T04:29:43;4.67;;;4.30;;
5995;SDS011;3026;53.612;7.278;2023-04-24T04:32:12;4.20;;;3.80;;
5995;SDS011;3026;53.612;7.278;2023-04-24T04:34:39;4.57;;;4.17;;
5995;SDS011;3026;53.612;7.278;2023-04-24T04:37:05;5.57;;;4.37;;
5995;SDS011;3026;53.612;7.278;2023-04-24T04:39:32;5.37;;;4.87;;
5995;SDS011;3026;53.612;7.278;2023-04-24T04:41:59;5.23;;;4.77;;
5995;SDS011;3026;53.612;7.278;2023-04-24T04:44:26;5.30;;;4.80;;
5995;SDS011;3026;53.612;7.278;2023-04-24T04:46:53;7.47;;;4.40;;
5995;SDS011;3026;53.612;7.278;2023-04-24T04:49:22;6.43;;;5.00;;
5995;SDS011;3026;53.612;7.278;2023-04-24T04:51:49;4.97;;;4.47;;
5995;SDS011;3026;53.612;7.278;2023-04-24T04:54:17;5.60;;;5.10;;
5995;SDS011;3026;53.612;7.278;2023-04-24T04:56:43;5.60;;;4.77;;
5995;SDS011;3026;53.612;7.278;2023-04-24T04:59:10;5.53;;;5.03;;
5995;SDS011;3026;53.612;7.278;2023-04-24T05:01:38;5.33;;;4.83;;
5995;SDS011;3026;53.612;7.278;2023-04-24T05:04:05;6.20;;;5.07;;
5995;SDS011;3026;53.612;7.278;2023-04-24T05:06:33;5.50;;;4.97;;
5995;SDS011;3026;53.612;7.278;2023-04-24T05:09:00;5.40;;;4.93;;
5995;SDS011;3026;53.612;7.278;2023-04-24T05:11:28;7.67;;;4.93;;
5995;SDS011;3026;53.612;7.278;2023-04-24T05:13:55;5.63;;;5.13;;
5995;SDS011;3026;53.612;7.278;2023-04-24T05:16:22;6.27;;;5.67;;
5995;SDS011;3026;53.612;7.278;2023-04-24T05:18:49;7.10;;;6.50;;
5995;SDS011;3026;53.612;7.278;2023-04-24T05:21:15;7.03;;;6.53;;
5995;SDS011;3026;53.612;7.278;2023-04-24T05:23:44;7.07;;;6.43;;
5995;SDS011;3026;53.612;7.278;2023-04-24T05:26:10;7.10;;;6.50;;
5995;SDS011;3026;53.612;7.278;2023-04-24T05:28:37;7.37;;;6.67;;
5995;SDS011;3026;53.612;7.278;2023-04-24T05:31:05;8.27;;;7.07;;
5995;SDS011;3026;53.612;7.278;2023-04-24T05:33:32;7.70;;;6.90;;
5995;SDS011;3026;53.612;7.278;2023-04-24T05:35:59;7.73;;;6.70;;
5995;SDS011;3026;53.612;7.278;2023-04-24T05:38:26;7.70;;;6.97;;
5995;SDS011;3026;53.612;7.278;2023-04-24T05:40:54;6.23;;;5.73;;
5995;SDS011;3026;53.612;7.278;2023-04-24T05:43:21;6.43;;;5.73;;
5995;SDS011;3026;53.612;7.278;2023-04-24T05:45:47;6.17;;;5.57;;
5995;SDS011;3026;53.612;7.278;2023-04-24T05:48:14;5.60;;;5.20;;
5995;SDS011;3026;53.612;7.278;2023-04-24T05:50:41;5.83;;;5.23;;
5995;SDS011;3026;53.612;7.278;2023-04-24T05:53:08;6.63;;;5.23;;
5995;SDS011;3026;53.612;7.278;2023-04-24T05:55:36;6.10;;;5.50;;
5995;SDS011;3026;53.612;7.278;2023-04-24T05:58:04;6.67;;;6.07;;
5995;SDS011;3026;53.612;7.278;2023-04-24T06:00:31;6.17;;;5.57;;
5995;SDS011;3026;53.612;7.278;2023-04-24T06:02:59;6.67;;;6.07;;
5995;SDS011;3026;53.612;7.278;2023-04-24T06:05:28;6.70;;;6.10;;
5995;SDS011;3026;53.612;7.278;2023-04-24T06:07:55;6.63;;;6.03;;
5995;SDS011;3026;53.612;7.278;2023-04-24T06:10:22;6.97;;;6.27;;
5995;SDS011;3026;53.612;7.278;2023-04-24T06:12:49;6.43;;;5.83;;
5995;SDS011;3026;53.612;7.278;2023-04-24T06:15:17;5.97;;;5.47;;
5995;SDS011;3026;53.612;7.278;2023-04-24T06:17:44;5.77;;;5.20;;
5995;SDS011;3026;53.612;7.278;2023-04-24T06:20:11;5.50;;;5.10;;
5995;SDS011;3026;53.612;7.278;2023-04-24T06:22:38;7.13;;;5.47;;
5995;SDS011;3026;53.612;7.278;2023-04-24T06:25:05;5.40;;;4.90;;
5995;SDS011;3026;53.612;7.278;2023-04-24T06:27:33;5.50;;;5.00;;
5995;SDS011;3026;53.612;7.278;2023-04-24T06:30:00;5.90;;;4.87;;
5995;SDS011;3026;53.612;7.278;2023-04-24T06:32:28;4.60;;;4.20;;
5995;SDS011;3026;53.612;7.278;2023-04-24T06:34:55;5.47;;;4.27;;
5995;SDS011;3026;53.612;7.278;2023-04-24T06:37:22;4.40;;;4.10;;
5995;SDS011;3026;53.612;7.278;2023-04-24T06:39:49;5.03;;;4.63;;
5995;SDS011;3026;53.612;7.278;2023-04-24T06:42:16;5.30;;;4.80;;
5995;SDS011;3026;53.612;7.278;2023-04-24T06:44:43;4.53;;;4.13;;
5995;SDS011;3026;53.612;7.278;2023-04-24T06:47:10;4.53;;;4.13;;
5995;SDS011;3026;53.612;7.278;2023-04-24T06:49:40;4.40;;;4.00;;
5995;SDS011;3026;53.612;7.278;2023-04-24T06:52:06;4.43;;;4.03;;
5995;SDS011;3026;53.612;7.278;2023-04-24T06:54:34;4.73;;;4.33;;
5995;SDS011;3026;53.612;7.278;2023-04-24T06:57:01;5.57;;;4.57;;
5995;SDS011;3026;53.612;7.278;2023-04-24T06:59:28;4.53;;;4.13;;
5995;SDS011;3026;53.612;7.278;2023-04-24T07:01:56;5.67;;;4.73;;
5995;SDS011;3026;53.612;7.278;2023-04-24T07:04:22;4.90;;;4.50;;
5995;SDS011;3026;53.612;7.278;2023-04-24T07:06:51;7.03;;;5.00;;
5995;SDS011;3026;53.612;7.278;2023-04-24T07:09:20;5.00;;;4.60;;
5995;SDS011;3026;53.612;7.278;2023-04-24T07:11:49;4.77;;;4.27;;
5995;SDS011;3026;53.612;7.278;2023-04-24T07:14:16;4.67;;;3.63;;
5995;SDS011;3026;53.612;7.278;2023-04-24T07:16:43;4.57;;;3.73;;
5995;SDS011;3026;53.612;7.278;2023-04-24T07:19:10;5.20;;;3.00;;
5995;SDS011;3026;53.612;7.278;2023-04-24T07:21:37;4.07;;;3.13;;
5995;SDS011;3026;53.612;7.278;2023-04-24T07:24:05;3.20;;;2.90;;
5995;SDS011;3026;53.612;7.278;2023-04-24T07:26:34;4.57;;;2.40;;
5995;SDS011;3026;53.612;7.278;2023-04-24T07:29:01;3.13;;;1.87;;
5995;SDS011;3026;53.612;7.278;2023-04-24T07:31:28;5.80;;;2.13;;
5995;SDS011;3026;53.612;7.278;2023-04-24T07:33:55;4.57;;;2.17;;
5995;SDS011;3026;53.612;7.278;2023-04-24T07:36:23;4.00;;;2.37;;
5995;SDS011;3026;53.612;7.278;2023-04-24T07:38:51;4.03;;;2.50;;
5995;SDS011;3026;53.612;7.278;2023-04-24T07:41:19;4.73;;;2.30;;
5995;SDS011;3026;53.612;7.278;2023-04-24T07:43:46;4.47;;;2.83;;
5995;SDS011;3026;53.612;7.278;2023-04-24T07:46:13;5.53;;;4.00;;
5995;SDS011;3026;53.612;7.278;2023-04-24T07:48:40;4.47;;;4.07;;
5995;SDS011;3026;53.612;7.278;2023-04-24T07:51:07;4.73;;;3.63;;
5995;SDS011;3026;53.612;7.278;2023-04-24T07:53:35;4.40;;;3.50;;
5995;SDS011;3026;53.612;7.278;2023-04-24T07:56:02;5.30;;;3.80;;
5995;SDS011;3026;53.612;7.278;2023-04-24T07:58:30;5.30;;;3.87;;
5995;SDS011;3026;53.612;7.278;2023-04-24T08:00:57;6.67;;;3.80;;
5995;SDS011;3026;53.612;7.278;2023-04-24T08:03:23;3.87;;;2.80;;
5995;SDS011;3026;53.612;7.278;2023-04-24T08:05:50;2.60;;;2.40;;
5995;SDS011;3026;53.612;7.278;2023-04-24T08:08:17;3.93;;;2.23;;
5995;SDS011;3026;53.612;7.278;2023-04-24T08:10:47;3.13;;;2.33;;
5995;SDS011;3026;53.612;7.278;2023-04-24T08:13:13;3.17;;;2.87;;
5995;SDS011;3026;53.612;7.278;2023-04-24T08:15:41;5.00;;;3.23;;
5995;SDS011;3026;53.612;7.278;2023-04-24T08:18:08;5.13;;;2.53;;
5995;SDS011;3026;53.612;7.278;2023-04-24T08:20:37;4.93;;;2.43;;
5995;SDS011;3026;53.612;7.278;2023-04-24T08:23:04;5.67;;;2.50;;
5995;SDS011;3026;53.612;7.278;2023-04-24T08:25:30;4.90;;;2.03;;
5995;SDS011;3026;53.612;7.278;2023-04-24T08:27:57;3.50;;;1.80;;
5995;SDS011;3026;53.612;7.278;2023-04-24T08:30:24;3.23;;;1.93;;
5995;SDS011;3026;53.612;7.278;2023-04-24T08:32:53;3.50;;;1.60;;
5995;SDS011;3026;53.612;7.278;2023-04-24T08:35:19;3.80;;;1.90;;
5995;SDS011;3026;53.612;7.278;2023-04-24T08:37:46;4.17;;;1.60;;
5995;SDS011;3026;53.612;7.278;2023-04-24T08:40:14;4.00;;;1.37;;
5995;SDS011;3026;53.612;7.278;2023-04-24T08:42:42;4.27;;;1.53;;
5995;SDS011;3026;53.612;7.278;2023-04-24T08:45:10;2.70;;;1.30;;
5995;SDS011;3026;53.612;7.278;2023-04-24T08:47:38;5.70;;;1.17;;
5995;SDS011;3026;53.612;7.278;2023-04-24T08:50:08;6.07;;;1.43;;
5995;SDS011;3026;53.612;7.278;2023-04-24T08:52:35;6.10;;;1.30;;
5995;SDS011;3026;53.612;7.278;2023-04-24T08:55:03;6.33;;;1.43;;
5995;SDS011;3026;53.612;7.278;2023-04-24T08:57:30;3.67;;;1.20;;
5995;SDS011;3026;53.612;7.278;2023-04-24T08:59:58;2.57;;;1.60;;
5995;SDS011;3026;53.612;7.278;2023-04-24T09:02:26;2.20;;;1.13;;
5995;SDS011;3026;53.612;7.278;2023-04-24T09:04:54;6.60;;;2.10;;
5995;SDS011;3026;53.612;7.278;2023-04-24T09:07:23;3.77;;;1.60;;
5995;SDS011;3026;53.612;7.278;2023-04-24T09:09:51;2.37;;;1.67;;
5995;SDS011;3026;53.612;7.278;2023-04-24T09:12:18;3.63;;;1.70;;
5995;SDS011;3026;53.612;7.278;2023-04-24T09:14:45;5.97;;;2.03;;
5995;SDS011;3026;53.612;7.278;2023-04-24T09:17:12;4.77;;;2.60;;
5995;SDS011;3026;53.612;7.278;2023-04-24T09:19:39;4.73;;;2.90;;
5995;SDS011;3026;53.612;7.278;2023-04-24T09:22:06;7.10;;;3.73;;
5995;SDS011;3026;53.612;7.278;2023-04-24T09:24:35;7.13;;;3.53;;
5995;SDS011;3026;53.612;7.278;2023-04-24T09:27:02;6.80;;;4.00;;
5995;SDS011;3026;53.612;7.278;2023-04-24T09:29:30;7.73;;;4.23;;
5995;SDS011;3026;53.612;7.278;2023-04-24T09:31:58;9.00;;;5.47;;
5995;SDS011;3026;53.612;7.278;2023-04-24T09:34:25;8.60;;;5.43;;
5995;SDS011;3026;53.612;7.278;2023-04-24T09:36:53;13.80;;;6.63;;
5995;SDS011;3026;53.612;7.278;2023-04-24T09:39:20;12.00;;;6.93;;
5995;SDS011;3026;53.612;7.278;2023-04-24T09:41:49;9.00;;;6.57;;
5995;SDS011;3026;53.612;7.278;2023-04-24T09:44:18;10.87;;;6.33;;
5995;SDS011;3026;53.612;7.278;2023-04-24T09:46:49;11.63;;;6.80;;
5995;SDS011;3026;53.612;7.278;2023-04-24T09:49:21;11.80;;;7.20;;
5995;SDS011;3026;53.612;7.278;2023-04-24T09:51:49;13.63;;;9.50;;
5995;SDS011;3026;53.612;7.278;2023-04-24T09:54:16;19.27;;;9.60;;
5995;SDS011;3026;53.612;7.278;2023-04-24T09:56:45;17.73;;;10.27;;
5995;SDS011;3026;53.612;7.278;2023-04-24T09:59:17;17.77;;;12.07;;
5995;SDS011;3026;53.612;7.278;2023-04-24T10:01:45;20.70;;;12.33;;
5995;SDS011;3026;53.612;7.278;2023-04-24T10:04:17;21.27;;;13.23;;
5995;SDS011;3026;53.612;7.278;2023-04-24T10:06:45;18.23;;;12.00;;
5995;SDS011;3026;53.612;7.278;2023-04-24T10:09:13;18.77;;;11.90;;
5995;SDS011;3026;53.612;7.278;2023-04-24T10:11:41;21.23;;;12.00;;
5995;SDS011;3026;53.612;7.278;2023-04-24T10:14:10;19.03;;;11.60;;
5995;SDS011;3026;53.612;7.278;2023-04-24T10:16:40;18.20;;;11.20;;
5995;SDS011;3026;53.612;7.278;2023-04-24T10:19:07;22.17;;;10.97;;
5995;SDS011;3026;53.612;7.278;2023-04-24T10:21:34;18.53;;;10.20;;
5995;SDS011;3026;53.612;7.278;2023-04-24T10:24:03;16.97;;;8.80;;
5995;SDS011;3026;53.612;7.278;2023-04-24T10:26:32;14.30;;;8.57;;
5995;SDS011;3026;53.612;7.278;2023-04-24T10:29:00;14.63;;;7.97;;
5995;SDS011;3026;53.612;7.278;2023-04-24T10:31:30;12.13;;;7.30;;
5995;SDS011;3026;53.612;7.278;2023-04-24T10:33:59;17.37;;;7.73;;
5995;SDS011;3026;53.612;7.278;2023-04-24T10:36:27;12.87;;;7.13;;
5995;SDS011;3026;53.612;7.278;2023-04-24T10:38:58;13.50;;;7.27;;
5995;SDS011;3026;53.612;7.278;2023-04-24T10:41:26;14.70;;;7.27;;
5995;SDS011;3026;53.612;7.278;2023-04-24T10:44:03;11.00;;;6.13;;
5995;SDS011;3026;53.612;7.278;2023-04-24T10:46:31;14.73;;;6.63;;
5995;SDS011;3026;53.612;7.278;2023-04-24T10:49:00;12.07;;;5.83;;
5995;SDS011;3026;53.612;7.278;2023-04-24T10:54:24;9.77;;;5.30;;
5995;SDS011;3026;53.612;7.278;2023-04-24T10:56:52;10.00;;;5.37;;
5995;SDS011;3026;53.612;7.278;2023-04-24T10:59:25;11.93;;;5.57;;
5995;SDS011;3026;53.612;7.278;2023-04-24T11:01:53;12.47;;;6.13;;
5995;SDS011;3026;53.612;7.278;2023-04-24T11:04:30;15.17;;;6.60;;
5995;SDS011;3026;53.612;7.278;2023-04-24T11:06:58;13.93;;;6.00;;
5995;SDS011;3026;53.612;7.278;2023-04-24T11:09:26;9.80;;;5.20;;
5995;SDS011;3026;53.612;7.278;2023-04-24T11:12:02;9.67;;;4.77;;
5995;SDS011;3026;53.612;7.278;2023-04-24T11:14:31;8.83;;;6.17;;
5995;SDS011;3026;53.612;7.278;2023-04-24T11:17:29;8.03;;;5.00;;
5995;SDS011;3026;53.612;7.278;2023-04-24T11:20:02;11.13;;;5.50;;
5995;SDS011;3026;53.612;7.278;2023-04-24T11:22:33;8.27;;;5.07;;
5995;SDS011;3026;53.612;7.278;2023-04-24T11:25:01;10.10;;;5.50;;
5995;SDS011;3026;53.612;7.278;2023-04-24T11:27:29;12.63;;;4.97;;
5995;SDS011;3026;53.612;7.278;2023-04-24T11:30:01;14.87;;;5.97;;
5995;SDS011;3026;53.612;7.278;2023-04-24T11:32:30;11.10;;;5.13;;
5995;SDS011;3026;53.612;7.278;2023-04-24T11:35:02;7.10;;;4.80;;
5995;SDS011;3026;53.612;7.278;2023-04-24T11:37:33;13.57;;;5.33;;
5995;SDS011;3026;53.612;7.278;2023-04-24T11:40:01;10.03;;;4.90;;
5995;SDS011;3026;53.612;7.278;2023-04-24T11:42:33;12.07;;;4.83;;
5995;SDS011;3026;53.612;7.278;2023-04-24T11:45:00;11.37;;;4.63;;
5995;SDS011;3026;53.612;7.278;2023-04-24T11:47:27;15.20;;;5.17;;
5995;SDS011;3026;53.612;7.278;2023-04-24T11:49:55;8.77;;;3.90;;
5995;SDS011;3026;53.612;7.278;2023-04-24T11:52:24;9.23;;;4.07;;
5995;SDS011;3026;53.612;7.278;2023-04-24T11:54:51;10.70;;;4.37;;
5995;SDS011;3026;53.612;7.278;2023-04-24T11:57:18;9.53;;;3.90;;
5995;SDS011;3026;53.612;7.278;2023-04-24T11:59:46;9.00;;;3.97;;
5995;SDS011;3026;53.612;7.278;2023-04-24T12:02:19;10.40;;;4.03;;
5995;SDS011;3026;53.612;7.278;2023-04-24T12:04:47;9.77;;;3.70;;
5995;SDS011;3026;53.612;7.278;2023-04-24T12:07:14;17.67;;;4.10;;
5995;SDS011;3026;53.612;7.278;2023-04-24T12:09:43;9.57;;;3.87;;
5995;SDS011;3026;53.612;7.278;2023-04-24T12:12:12;9.27;;;3.83;;
5995;SDS011;3026;53.612;7.278;2023-04-24T12:17:25;10.50;;;3.47;;
5995;SDS011;3026;53.612;7.278;2023-04-24T12:19:56;9.90;;;2.77;;
5995;SDS011;3026;53.612;7.278;2023-04-24T12:22:25;11.57;;;3.30;;
5995;SDS011;3026;53.612;7.278;2023-04-24T12:25:00;10.57;;;3.20;;
5995;SDS011;3026;53.612;7.278;2023-04-24T12:27:29;8.20;;;3.33;;
5995;SDS011;3026;53.612;7.278;2023-04-24T12:29:57;16.57;;;3.27;;
5995;SDS011;3026;53.612;7.278;2023-04-24T12:32:25;9.07;;;3.40;;
5995;SDS011;3026;53.612;7.278;2023-04-24T12:34:52;8.13;;;3.43;;
5995;SDS011;3026;53.612;7.278;2023-04-24T12:37:20;6.10;;;2.80;;
5995;SDS011;3026;53.612;7.278;2023-04-24T12:39:59;13.73;;;3.80;;
5995;SDS011;3026;53.612;7.278;2023-04-24T12:42:28;6.80;;;2.57;;
5995;SDS011;3026;53.612;7.278;2023-04-24T12:44:56;6.67;;;2.93;;
5995;SDS011;3026;53.612;7.278;2023-04-24T12:47:24;9.03;;;3.43;;
5995;SDS011;3026;53.612;7.278;2023-04-24T12:49:51;10.50;;;3.33;;
5995;SDS011;3026;53.612;7.278;2023-04-24T12:52:20;7.37;;;2.83;;
5995;SDS011;3026;53.612;7.278;2023-04-24T12:54:47;7.93;;;2.27;;
5995;SDS011;3026;53.612;7.278;2023-04-24T12:57:15;9.50;;;3.17;;
5995;SDS011;3026;53.612;7.278;2023-04-24T12:59:42;7.70;;;2.80;;
5995;SDS011;3026;53.612;7.278;2023-04-24T13:02:09;7.80;;;3.47;;
5995;SDS011;3026;53.612;7.278;2023-04-24T13:04:36;6.20;;;3.03;;
5995;SDS011;3026;53.612;7.278;2023-04-24T13:07:03;7.50;;;2.90;;
5995;SDS011;3026;53.612;7.278;2023-04-24T13:09:30;11.20;;;2.93;;
5995;SDS011;3026;53.612;7.278;2023-04-24T13:11:57;8.63;;;3.00;;
5995;SDS011;3026;53.612;7.278;2023-04-24T13:14:25;14.07;;;3.10;;
5995;SDS011;3026;53.612;7.278;2023-04-24T13:16:52;9.20;;;2.60;;
5995;SDS011;3026;53.612;7.278;2023-04-24T13:19:18;9.00;;;2.70;;
5995;SDS011;3026;53.612;7.278;2023-04-24T13:21:45;8.47;;;2.77;;
5995;SDS011;3026;53.612;7.278;2023-04-24T13:24:12;8.50;;;2.77;;
5995;SDS011;3026;53.612;7.278;2023-04-24T13:26:41;10.67;;;2.40;;
5995;SDS011;3026;53.612;7.278;2023-04-24T13:29:07;6.93;;;2.83;;
5995;SDS011;3026;53.612;7.278;2023-04-24T13:31:36;5.13;;;2.63;;
5995;SDS011;3026;53.612;7.278;2023-04-24T13:34:03;6.00;;;1.90;;
5995;SDS011;3026;53.612;7.278;2023-04-24T13:36:30;7.63;;;2.10;;
5995;SDS011;3026;53.612;7.278;2023-04-24T13:38:56;8.30;;;2.60;;
5995;SDS011;3026;53.612;7.278;2023-04-24T13:41:23;7.03;;;1.80;;
5995;SDS011;3026;53.612;7.278;2023-04-24T13:43:50;5.97;;;1.73;;
5995;SDS011;3026;53.612;7.278;2023-04-24T13:46:17;6.27;;;1.73;;
5995;SDS011;3026;53.612;7.278;2023-04-24T13:48:45;5.73;;;1.80;;
5995;SDS011;3026;53.612;7.278;2023-04-24T13:51:12;6.33;;;1.60;;
5995;SDS011;3026;53.612;7.278;2023-04-24T13:53:39;2.97;;;1.53;;
5995;SDS011;3026;53.612;7.278;2023-04-24T13:56:05;5.10;;;1.53;;
5995;SDS011;3026;53.612;7.278;2023-04-24T13:58:33;3.70;;;1.30;;
5995;SDS011;3026;53.612;7.278;2023-04-24T14:01:01;7.83;;;1.77;;
5995;SDS011;3026;53.612;7.278;2023-04-24T14:03:28;5.50;;;1.53;;
5995;SDS011;3026;53.612;7.278;2023-04-24T14:05:56;2.43;;;1.10;;
5995;SDS011;3026;53.612;7.278;2023-04-24T14:08:23;4.20;;;1.60;;
5995;SDS011;3026;53.612;7.278;2023-04-24T14:10:50;5.63;;;1.93;;
5995;SDS011;3026;53.612;7.278;2023-04-24T14:13:17;9.33;;;1.80;;
5995;SDS011;3026;53.612;7.278;2023-04-24T14:15:44;4.33;;;1.73;;
5995;SDS011;3026;53.612;7.278;2023-04-24T14:18:11;3.80;;;1.33;;
5995;SDS011;3026;53.612;7.278;2023-04-24T14:20:38;7.37;;;1.23;;
5995;SDS011;3026;53.612;7.278;2023-04-24T14:23:06;6.63;;;2.23;;
5995;SDS011;3026;53.612;7.278;2023-04-24T14:25:33;7.00;;;1.40;;
5995;SDS011;3026;53.612;7.278;2023-04-24T14:28:00;6.27;;;1.83;;
5995;SDS011;3026;53.612;7.278;2023-04-24T14:30:27;3.03;;;1.37;;
5995;SDS011;3026;53.612;7.278;2023-04-24T14:32:53;9.40;;;1.83;;
5995;SDS011;3026;53.612;7.278;2023-04-24T14:35:21;6.63;;;1.30;;
5995;SDS011;3026;53.612;7.278;2023-04-24T14:37:48;6.23;;;1.30;;
5995;SDS011;3026;53.612;7.278;2023-04-24T14:40:16;5.43;;;1.40;;
5995;SDS011;3026;53.612;7.278;2023-04-24T14:42:43;5.47;;;1.53;;
5995;SDS011;3026;53.612;7.278;2023-04-24T14:45:10;6.77;;;1.90;;
5995;SDS011;3026;53.612;7.278;2023-04-24T14:47:37;6.40;;;1.60;;
5995;SDS011;3026;53.612;7.278;2023-04-24T14:50:04;3.97;;;1.30;;
5995;SDS011;3026;53.612;7.278;2023-04-24T14:52:33;4.93;;;1.30;;
5995;SDS011;3026;53.612;7.278;2023-04-24T14:54:59;7.00;;;1.23;;
5995;SDS011;3026;53.612;7.278;2023-04-24T14:57:28;3.10;;;0.90;;
5995;SDS011;3026;53.612;7.278;2023-04-24T14:59:54;2.53;;;0.70;;
5995;SDS011;3026;53.612;7.278;2023-04-24T15:02:21;4.37;;;0.90;;
5995;SDS011;3026;53.612;7.278;2023-04-24T15:04:48;2.87;;;0.90;;
5995;SDS011;3026;53.612;7.278;2023-04-24T15:07:15;5.03;;;1.40;;
5995;SDS011;3026;53.612;7.278;2023-04-24T15:09:42;8.73;;;1.67;;
5995;SDS011;3026;53.612;7.278;2023-04-24T15:12:08;6.27;;;1.83;;
5995;SDS011;3026;53.612;7.278;2023-04-24T15:14:38;6.30;;;1.23;;
5995;SDS011;3026;53.612;7.278;2023-04-24T15:17:05;2.80;;;1.50;;
5995;SDS011;3026;53.612;7.278;2023-04-24T15:19:32;7.13;;;1.60;;
5995;SDS011;3026;53.612;7.278;2023-04-24T15:21:59;4.63;;;1.67;;